sensor_id;sensor_type;location;lat;lon;timestamp;pressure;altitude;pressure_sealevel;temperature;humidity
13836;BME280;6988;52.614;13.500;2023-01-30T00:03:26;54922.78;;;-143.77;73.77
13836;BME280;6988;52.614;13.500;2023-01-30T00:08:18;54939.22;;;-143.77;73.50
13836;BME280;6988;52.614;13.500;2023-01-30T00:13:10;54896.13;;;-143.77;73.45
13836;BME280;6988;52.614;13.500;2023-01-30T00:18:04;54918.69;;;-143.77;73.57
13836;BME280;6988;52.614;13.500;2023-01-30T00:22:57;54892.00;;;-143.77;73.63
13836;BME280;6988;52.614;13.500;2023-01-30T00:27:49;54926.91;;;-143.77;73.47
13836;BME280;6988;52.614;13.500;2023-01-30T00:32:40;54931.00;;;-143.77;73.41
13836;BME280;6988;52.614;13.500;2023-01-30T00:37:32;54924.84;;;-143.77;73.16
13836;BME280;6988;52.614;13.500;2023-01-30T00:42:25;54922.78;;;-143.77;73.23
13836;BME280;6988;52.614;13.500;2023-01-30T00:47:34;54918.69;;;-143.77;73.32
13836;BME280;6988;52.614;13.500;2023-01-30T00:52:26;54902.28;;;-143.77;73.21
13836;BME280;6988;52.614;13.500;2023-01-30T00:57:18;54912.53;;;-143.77;73.43
13836;BME280;6988;52.614;13.500;2023-01-30T01:02:11;54922.78;;;-143.77;73.05
13836;BME280;6988;52.614;13.500;2023-01-30T01:07:03;54926.91;;;-143.77;73.54
13836;BME280;6988;52.614;13.500;2023-01-30T01:11:55;54914.59;;;-143.77;73.39
13836;BME280;6988;52.614;13.500;2023-01-30T01:16:46;54916.63;;;-143.77;73.39
13836;BME280;6988;52.614;13.500;2023-01-30T01:21:39;54912.53;;;-143.77;73.44
13836;BME280;6988;52.614;13.500;2023-01-30T01:26:32;54918.69;;;-143.77;73.45
13836;BME280;6988;52.614;13.500;2023-01-30T01:31:24;54892.00;;;-143.77;73.18
13836;BME280;6988;52.614;13.500;2023-01-30T01:36:16;54922.78;;;-143.77;73.45
13836;BME280;6988;52.614;13.500;2023-01-30T01:41:16;54910.47;;;-143.77;73.85
13836;BME280;6988;52.614;13.500;2023-01-30T01:46:17;54928.94;;;-143.77;73.42
13836;BME280;6988;52.614;13.500;2023-01-30T01:51:15;54894.06;;;-143.77;73.69
13836;BME280;6988;52.614;13.500;2023-01-30T01:56:13;54939.22;;;-143.77;73.96
13836;BME280;6988;52.614;13.500;2023-01-30T02:01:07;54900.22;;;-143.77;74.07
13836;BME280;6988;52.614;13.500;2023-01-30T02:06:02;54914.59;;;-143.77;74.79
13836;BME280;6988;52.614;13.500;2023-01-30T02:11:02;54914.59;;;-143.77;75.77
13836;BME280;6988;52.614;13.500;2023-01-30T02:16:01;54910.47;;;-143.77;76.96
13836;BME280;6988;52.614;13.500;2023-01-30T02:21:23;54937.16;;;-143.77;77.89
13836;BME280;6988;52.614;13.500;2023-01-30T02:27:00;54922.78;;;-143.77;78.68
13836;BME280;6988;52.614;13.500;2023-01-30T02:32:05;54928.94;;;-143.77;79.68
13836;BME280;6988;52.614;13.500;2023-01-30T02:37:11;54924.84;;;-143.77;79.73
13836;BME280;6988;52.614;13.500;2023-01-30T02:42:18;54931.00;;;-143.77;79.82
13836;BME280;6988;52.614;13.500;2023-01-30T02:47:18;54945.38;;;-143.77;80.73
13836;BME280;6988;52.614;13.500;2023-01-30T02:52:13;54912.53;;;-143.77;81.23
13836;BME280;6988;52.614;13.500;2023-01-30T02:57:19;54941.25;;;-143.77;81.88
13836;BME280;6988;52.614;13.500;2023-01-30T03:02:30;54949.47;;;-143.77;81.81
13836;BME280;6988;52.614;13.500;2023-01-30T03:07:43;54926.91;;;-143.77;81.57
13836;BME280;6988;52.614;13.500;2023-01-30T03:12:47;54931.00;;;-143.77;81.18
13836;BME280;6988;52.614;13.500;2023-01-30T03:17:44;54965.88;;;-143.77;81.02
13836;BME280;6988;52.614;13.500;2023-01-30T03:22:39;54889.97;;;-143.77;80.64
13836;BME280;6988;52.614;13.500;2023-01-30T03:27:33;54916.63;;;-143.77;80.80
13836;BME280;6988;52.614;13.500;2023-01-30T03:32:25;54910.47;;;-143.77;80.66
13836;BME280;6988;52.614;13.500;2023-01-30T03:37:18;54920.75;;;-143.77;80.50
13836;BME280;6988;52.614;13.500;2023-01-30T03:42:10;54943.31;;;-143.77;80.01
13836;BME280;6988;52.614;13.500;2023-01-30T03:47:02;54910.47;;;-143.77;79.38
13836;BME280;6988;52.614;13.500;2023-01-30T03:51:54;54916.63;;;-143.77;79.20
13836;BME280;6988;52.614;13.500;2023-01-30T03:56:47;54910.47;;;-143.77;79.22
13836;BME280;6988;52.614;13.500;2023-01-30T04:01:39;54902.28;;;-143.77;79.83
13836;BME280;6988;52.614;13.500;2023-01-30T04:06:31;54912.53;;;-143.77;79.55
13836;BME280;6988;52.614;13.500;2023-01-30T04:11:23;54924.84;;;-143.77;79.81
13836;BME280;6988;52.614;13.500;2023-01-30T04:16:19;54918.69;;;-143.77;79.82
13836;BME280;6988;52.614;13.500;2023-01-30T04:21:30;54926.91;;;-143.77;79.78
13836;BME280;6988;52.614;13.500;2023-01-30T04:26:22;54945.38;;;-143.77;79.31
13836;BME280;6988;52.614;13.500;2023-01-30T04:31:14;54910.47;;;-143.77;79.08
13836;BME280;6988;52.614;13.500;2023-01-30T04:36:23;54883.81;;;-143.77;78.84
13836;BME280;6988;52.614;13.500;2023-01-30T04:41:14;54883.81;;;-143.77;78.62
13836;BME280;6988;52.614;13.500;2023-01-30T04:46:07;54926.91;;;-143.77;78.49
13836;BME280;6988;52.614;13.500;2023-01-30T04:50:59;54892.00;;;-143.77;79.07
13836;BME280;6988;52.614;13.500;2023-01-30T04:55:53;54906.38;;;-143.77;80.18
13836;BME280;6988;52.614;13.500;2023-01-30T05:00:46;54918.69;;;-143.77;81.02
13836;BME280;6988;52.614;13.500;2023-01-30T05:05:38;54906.38;;;-143.77;82.01
13836;BME280;6988;52.614;13.500;2023-01-30T05:10:32;54910.47;;;-143.77;82.95
13836;BME280;6988;52.614;13.500;2023-01-30T05:15:25;54906.38;;;-143.77;83.49
13836;BME280;6988;52.614;13.500;2023-01-30T05:20:17;54906.38;;;-143.77;84.67
13836;BME280;6988;52.614;13.500;2023-01-30T05:25:09;54902.28;;;-143.77;85.25
13836;BME280;6988;52.614;13.500;2023-01-30T05:30:01;54898.16;;;-143.77;85.31
13836;BME280;6988;52.614;13.500;2023-01-30T05:34:54;54904.31;;;-143.77;85.72
13836;BME280;6988;52.614;13.500;2023-01-30T05:39:46;54910.47;;;-143.77;86.08
13836;BME280;6988;52.614;13.500;2023-01-30T05:44:38;54931.00;;;-143.77;85.98
13836;BME280;6988;52.614;13.500;2023-01-30T05:49:30;54910.47;;;-143.77;86.33
13836;BME280;6988;52.614;13.500;2023-01-30T05:54:23;54881.75;;;-143.77;86.73
13836;BME280;6988;52.614;13.500;2023-01-30T05:59:15;54908.44;;;-143.77;86.70
13836;BME280;6988;52.614;13.500;2023-01-30T06:04:07;54900.22;;;-143.77;87.04
13836;BME280;6988;52.614;13.500;2023-01-30T06:08:59;54898.16;;;-143.77;86.77
13836;BME280;6988;52.614;13.500;2023-01-30T06:13:53;54885.84;;;-143.77;87.01
13836;BME280;6988;52.614;13.500;2023-01-30T06:18:45;54877.66;;;-143.77;87.36
13836;BME280;6988;52.614;13.500;2023-01-30T06:23:37;54883.81;;;-143.77;87.44
13836;BME280;6988;52.614;13.500;2023-01-30T06:28:30;54883.81;;;-143.77;87.34
13836;BME280;6988;52.614;13.500;2023-01-30T06:33:23;54920.75;;;-143.77;87.59
13836;BME280;6988;52.614;13.500;2023-01-30T06:38:14;54894.06;;;-143.77;87.57
13836;BME280;6988;52.614;13.500;2023-01-30T06:43:06;54881.75;;;-143.77;87.82
13836;BME280;6988;52.614;13.500;2023-01-30T06:47:58;54869.44;;;-143.77;87.83
13836;BME280;6988;52.614;13.500;2023-01-30T06:52:53;54861.22;;;-143.77;87.64
13836;BME280;6988;52.614;13.500;2023-01-30T06:57:45;54881.75;;;-143.77;88.06
13836;BME280;6988;52.614;13.500;2023-01-30T07:02:37;54881.75;;;-143.77;88.09
13836;BME280;6988;52.614;13.500;2023-01-30T07:07:30;54881.75;;;-143.77;88.08
13836;BME280;6988;52.614;13.500;2023-01-30T07:12:24;54871.50;;;-143.77;88.00
13836;BME280;6988;52.614;13.500;2023-01-30T07:17:16;54869.44;;;-143.77;87.82
13836;BME280;6988;52.614;13.500;2023-01-30T07:22:08;54871.50;;;-143.77;87.79
13836;BME280;6988;52.614;13.500;2023-01-30T07:27:00;54879.69;;;-143.77;87.76
13836;BME280;6988;52.614;13.500;2023-01-30T07:31:53;54871.50;;;-143.77;87.76
13836;BME280;6988;52.614;13.500;2023-01-30T07:36:45;54881.75;;;-143.77;87.68
13836;BME280;6988;52.614;13.500;2023-01-30T07:41:36;54855.06;;;-143.77;88.47
13836;BME280;6988;52.614;13.500;2023-01-30T07:46:28;54832.50;;;-143.77;88.52
13836;BME280;6988;52.614;13.500;2023-01-30T07:51:25;54832.50;;;-143.77;88.95
13836;BME280;6988;52.614;13.500;2023-01-30T07:56:17;54863.28;;;-143.77;88.99
13836;BME280;6988;52.614;13.500;2023-01-30T08:01:10;54844.81;;;-143.77;89.13
13836;BME280;6988;52.614;13.500;2023-01-30T08:06:02;54836.59;;;-143.77;88.88
13836;BME280;6988;52.614;13.500;2023-01-30T08:10:55;54844.81;;;-143.77;89.00
13836;BME280;6988;52.614;13.500;2023-01-30T08:15:47;54834.56;;;-143.77;89.28
13836;BME280;6988;52.614;13.500;2023-01-30T08:20:39;54842.75;;;-143.77;89.17
13836;BME280;6988;52.614;13.500;2023-01-30T08:25:32;54840.72;;;-143.77;89.34
13836;BME280;6988;52.614;13.500;2023-01-30T08:30:28;54846.88;;;-143.77;89.71
13836;BME280;6988;52.614;13.500;2023-01-30T08:35:19;54830.44;;;-143.77;89.49
13836;BME280;6988;52.614;13.500;2023-01-30T08:40:12;54838.66;;;-143.77;89.65
13836;BME280;6988;52.614;13.500;2023-01-30T08:45:05;54857.13;;;-143.77;89.54
13836;BME280;6988;52.614;13.500;2023-01-30T08:49:59;54828.41;;;-143.77;89.52
13836;BME280;6988;52.614;13.500;2023-01-30T08:54:50;54867.38;;;-143.77;89.70
13836;BME280;6988;52.614;13.500;2023-01-30T08:59:42;54832.50;;;-143.77;89.43
13836;BME280;6988;52.614;13.500;2023-01-30T09:04:34;54846.88;;;-143.77;89.34
13836;BME280;6988;52.614;13.500;2023-01-30T09:09:29;54822.25;;;-143.77;89.19
13836;BME280;6988;52.614;13.500;2023-01-30T09:14:21;54855.06;;;-143.77;89.38
13836;BME280;6988;52.614;13.500;2023-01-30T09:19:13;54809.94;;;-143.77;88.84
13836;BME280;6988;52.614;13.500;2023-01-30T09:24:05;54844.81;;;-143.77;89.06
13836;BME280;6988;52.614;13.500;2023-01-30T09:28:58;54787.34;;;-143.77;88.63
13836;BME280;6988;52.614;13.500;2023-01-30T09:33:50;54820.19;;;-143.77;88.95
13836;BME280;6988;52.614;13.500;2023-01-30T09:38:43;54822.25;;;-143.77;88.45
13836;BME280;6988;52.614;13.500;2023-01-30T09:43:52;54793.50;;;-143.77;88.13
13836;BME280;6988;52.614;13.500;2023-01-30T09:49:03;54807.88;;;-143.77;87.99
13836;BME280;6988;52.614;13.500;2023-01-30T09:54:19;54809.94;;;-143.77;86.95
13836;BME280;6988;52.614;13.500;2023-01-30T09:59:23;54795.56;;;-143.77;86.47
13836;BME280;6988;52.614;13.500;2023-01-30T10:04:28;54799.66;;;-143.77;86.70
13836;BME280;6988;52.614;13.500;2023-01-30T10:09:36;54807.88;;;-143.77;85.67
13836;BME280;6988;52.614;13.500;2023-01-30T10:14:52;54811.97;;;-143.77;85.22
13836;BME280;6988;52.614;13.500;2023-01-30T10:20:04;54799.66;;;-143.77;84.11
13836;BME280;6988;52.614;13.500;2023-01-30T10:25:15;54828.41;;;-143.77;83.50
13836;BME280;6988;52.614;13.500;2023-01-30T10:30:15;54750.41;;;-143.77;82.58
13836;BME280;6988;52.614;13.500;2023-01-30T10:35:18;54738.09;;;-143.77;81.38
13836;BME280;6988;52.614;13.500;2023-01-30T10:40:17;54807.88;;;-143.77;78.85
13836;BME280;6988;52.614;13.500;2023-01-30T10:45:14;54750.41;;;-143.77;78.65
13836;BME280;6988;52.614;13.500;2023-01-30T10:50:15;54746.31;;;-143.77;77.92
13836;BME280;6988;52.614;13.500;2023-01-30T10:55:16;54748.38;;;-143.77;77.69
13836;BME280;6988;52.614;13.500;2023-01-30T11:00:23;54740.16;;;-143.77;76.64
13836;BME280;6988;52.614;13.500;2023-01-30T11:05:23;54773.00;;;-143.77;76.59
13836;BME280;6988;52.614;13.500;2023-01-30T11:10:20;54742.22;;;-143.77;75.27
13836;BME280;6988;52.614;13.500;2023-01-30T11:15:13;54729.91;;;-143.77;75.64
13836;BME280;6988;52.614;13.500;2023-01-30T11:20:12;54729.91;;;-143.77;73.84
13836;BME280;6988;52.614;13.500;2023-01-30T11:25:15;54729.91;;;-143.77;73.44
13836;BME280;6988;52.614;13.500;2023-01-30T11:30:16;54775.03;;;-143.77;73.37
13836;BME280;6988;52.614;13.500;2023-01-30T11:35:27;54742.22;;;-143.77;71.73
13836;BME280;6988;52.614;13.500;2023-01-30T11:40:26;54764.78;;;-143.77;72.42
13836;BME280;6988;52.614;13.500;2023-01-30T11:45:23;54723.75;;;-143.77;71.79
13836;BME280;6988;52.614;13.500;2023-01-30T11:50:18;54721.69;;;-143.77;71.73
13836;BME280;6988;52.614;13.500;2023-01-30T11:55:14;54713.47;;;-143.77;71.02
13836;BME280;6988;52.614;13.500;2023-01-30T12:00:16;54738.09;;;-143.77;70.80
13836;BME280;6988;52.614;13.500;2023-01-30T12:05:23;54717.59;;;-143.77;69.47
13836;BME280;6988;52.614;13.500;2023-01-30T12:10:29;54709.38;;;-143.77;69.21
13836;BME280;6988;52.614;13.500;2023-01-30T12:15:25;54703.22;;;-143.77;69.04
13836;BME280;6988;52.614;13.500;2023-01-30T12:20:28;54678.59;;;-143.77;68.51
13836;BME280;6988;52.614;13.500;2023-01-30T12:25:27;54672.44;;;-143.77;68.61
13836;BME280;6988;52.614;13.500;2023-01-30T12:30:31;54740.16;;;-143.77;68.08
13836;BME280;6988;52.614;13.500;2023-01-30T12:35:37;54672.44;;;-143.77;67.65
13836;BME280;6988;52.614;13.500;2023-01-30T12:40:44;54678.59;;;-143.77;66.99
13836;BME280;6988;52.614;13.500;2023-01-30T12:45:56;54713.47;;;-143.77;67.97
13836;BME280;6988;52.614;13.500;2023-01-30T12:51:08;54682.69;;;-143.77;67.20
13836;BME280;6988;52.614;13.500;2023-01-30T12:56:26;54684.75;;;-143.77;67.08
13836;BME280;6988;52.614;13.500;2023-01-30T13:01:31;54727.84;;;-143.77;66.33
13836;BME280;6988;52.614;13.500;2023-01-30T13:06:57;54701.16;;;-143.77;66.69
13836;BME280;6988;52.614;13.500;2023-01-30T13:11:58;54731.94;;;-143.77;67.50
13836;BME280;6988;52.614;13.500;2023-01-30T13:17:20;54699.13;;;-143.77;67.53
13836;BME280;6988;52.614;13.500;2023-01-30T13:22:22;54688.84;;;-143.77;67.78
13836;BME280;6988;52.614;13.500;2023-01-30T13:27:21;54713.47;;;-143.77;67.63
13836;BME280;6988;52.614;13.500;2023-01-30T13:32:26;54701.16;;;-143.77;66.71
13836;BME280;6988;52.614;13.500;2023-01-30T13:37:20;54717.59;;;-143.77;66.64
13836;BME280;6988;52.614;13.500;2023-01-30T13:42:24;54727.84;;;-143.77;68.35
13836;BME280;6988;52.614;13.500;2023-01-30T13:47:39;54705.28;;;-143.77;68.52
13836;BME280;6988;52.614;13.500;2023-01-30T13:52:42;54742.22;;;-143.77;69.06
13836;BME280;6988;52.614;13.500;2023-01-30T13:57:49;54721.69;;;-143.77;71.40
13836;BME280;6988;52.614;13.500;2023-01-30T14:03:25;54773.00;;;-143.77;71.99
13836;BME280;6988;52.614;13.500;2023-01-30T14:08:22;54758.63;;;-143.77;72.46
13836;BME280;6988;52.614;13.500;2023-01-30T14:13:16;54752.47;;;-143.77;73.23
13836;BME280;6988;52.614;13.500;2023-01-30T14:18:21;54791.47;;;-143.77;73.62
13836;BME280;6988;52.614;13.500;2023-01-30T14:23:23;54785.31;;;-143.77;74.03
13836;BME280;6988;52.614;13.500;2023-01-30T14:28:47;54766.84;;;-143.77;74.51
13836;BME280;6988;52.614;13.500;2023-01-30T14:33:50;54785.31;;;-143.77;74.87
13836;BME280;6988;52.614;13.500;2023-01-30T14:38:55;54816.09;;;-143.77;74.36
13836;BME280;6988;52.614;13.500;2023-01-30T14:43:50;54781.19;;;-143.77;74.43
13836;BME280;6988;52.614;13.500;2023-01-30T14:48:44;54783.25;;;-143.77;74.38
13836;BME280;6988;52.614;13.500;2023-01-30T14:53:52;54762.72;;;-143.77;73.92
13836;BME280;6988;52.614;13.500;2023-01-30T14:58:52;54791.47;;;-143.77;73.61
13836;BME280;6988;52.614;13.500;2023-01-30T15:03:49;54807.88;;;-143.77;73.71
13836;BME280;6988;52.614;13.500;2023-01-30T15:08:43;54816.09;;;-143.77;74.14
13836;BME280;6988;52.614;13.500;2023-01-30T15:13:57;54811.97;;;-143.77;75.65
13836;BME280;6988;52.614;13.500;2023-01-30T15:19:10;54820.19;;;-143.77;75.50
13836;BME280;6988;52.614;13.500;2023-01-30T15:24:45;54768.88;;;-143.77;75.91
13836;BME280;6988;52.614;13.500;2023-01-30T15:30:17;54791.47;;;-143.77;75.05
13836;BME280;6988;52.614;13.500;2023-01-30T15:35:22;54781.19;;;-143.77;75.29
13836;BME280;6988;52.614;13.500;2023-01-30T15:40:21;54820.19;;;-143.77;74.96
13836;BME280;6988;52.614;13.500;2023-01-30T15:45:25;54775.03;;;-143.77;75.21
13836;BME280;6988;52.614;13.500;2023-01-30T15:50:20;54807.88;;;-143.77;75.17
13836;BME280;6988;52.614;13.500;2023-01-30T15:55:19;54818.13;;;-143.77;75.75
13836;BME280;6988;52.614;13.500;2023-01-30T16:00:24;54799.66;;;-143.77;75.14
13836;BME280;6988;52.614;13.500;2023-01-30T16:05:20;54807.88;;;-143.77;75.40
13836;BME280;6988;52.614;13.500;2023-01-30T16:10:16;54803.78;;;-143.77;75.95
13836;BME280;6988;52.614;13.500;2023-01-30T16:15:23;54818.13;;;-143.77;75.44
13836;BME280;6988;52.614;13.500;2023-01-30T16:20:16;54853.03;;;-143.77;75.22
13836;BME280;6988;52.614;13.500;2023-01-30T16:25:18;54830.44;;;-143.77;75.86
13836;BME280;6988;52.614;13.500;2023-01-30T16:30:12;54834.56;;;-143.77;77.07
13836;BME280;6988;52.614;13.500;2023-01-30T16:35:30;54836.59;;;-143.77;78.76
13836;BME280;6988;52.614;13.500;2023-01-30T16:40:25;54838.66;;;-143.77;79.33
13836;BME280;6988;52.614;13.500;2023-01-30T16:51:21;54822.25;;;-143.77;81.70
13836;BME280;6988;52.614;13.500;2023-01-30T16:56:15;54848.91;;;-143.77;81.95
13836;BME280;6988;52.614;13.500;2023-01-30T17:01:09;54832.50;;;-143.77;82.46
13836;BME280;6988;52.614;13.500;2023-01-30T17:06:05;54834.56;;;-143.77;82.28
13836;BME280;6988;52.614;13.500;2023-01-30T17:11:06;54811.97;;;-143.77;82.60
13836;BME280;6988;52.614;13.500;2023-01-30T17:16:30;54820.19;;;-143.77;82.63
13836;BME280;6988;52.614;13.500;2023-01-30T17:21:27;54832.50;;;-143.77;82.49
13836;BME280;6988;52.614;13.500;2023-01-30T17:26:22;54805.81;;;-143.77;81.81
13836;BME280;6988;52.614;13.500;2023-01-30T17:31:15;54811.97;;;-143.77;81.80
13836;BME280;6988;52.614;13.500;2023-01-30T17:36:16;54799.66;;;-143.77;81.24
13836;BME280;6988;52.614;13.500;2023-01-30T17:41:17;54828.41;;;-143.77;81.02
13836;BME280;6988;52.614;13.500;2023-01-30T17:46:13;54844.81;;;-143.77;80.89
13836;BME280;6988;52.614;13.500;2023-01-30T17:51:05;54807.88;;;-143.77;80.83
13836;BME280;6988;52.614;13.500;2023-01-30T17:55:57;54824.28;;;-143.77;79.88
13836;BME280;6988;52.614;13.500;2023-01-30T18:00:48;54826.34;;;-143.77;80.18
13836;BME280;6988;52.614;13.500;2023-01-30T18:05:43;54830.44;;;-143.77;79.60
13836;BME280;6988;52.614;13.500;2023-01-30T18:10:35;54822.25;;;-143.77;78.72
13836;BME280;6988;52.614;13.500;2023-01-30T18:15:27;54793.50;;;-143.77;78.53
13836;BME280;6988;52.614;13.500;2023-01-30T18:20:19;54799.66;;;-143.77;77.99
13836;BME280;6988;52.614;13.500;2023-01-30T18:25:12;54814.03;;;-143.77;77.57
13836;BME280;6988;52.614;13.500;2023-01-30T18:30:06;54799.66;;;-143.77;76.42
13836;BME280;6988;52.614;13.500;2023-01-30T18:34:58;54787.34;;;-143.77;75.55
13836;BME280;6988;52.614;13.500;2023-01-30T18:39:49;54795.56;;;-143.77;74.96
13836;BME280;6988;52.614;13.500;2023-01-30T18:44:42;54799.66;;;-143.77;74.10
13836;BME280;6988;52.614;13.500;2023-01-30T18:49:34;54803.78;;;-143.77;71.96
13836;BME280;6988;52.614;13.500;2023-01-30T18:54:26;54785.31;;;-143.77;71.86
13836;BME280;6988;52.614;13.500;2023-01-30T18:59:17;54803.78;;;-143.77;70.83
13836;BME280;6988;52.614;13.500;2023-01-30T19:04:10;54801.72;;;-143.77;70.39
13836;BME280;6988;52.614;13.500;2023-01-30T19:09:04;54789.41;;;-143.77;69.96
13836;BME280;6988;52.614;13.500;2023-01-30T19:13:57;54799.66;;;-143.77;70.25
13836;BME280;6988;52.614;13.500;2023-01-30T19:18:49;54779.16;;;-143.77;70.15
13836;BME280;6988;52.614;13.500;2023-01-30T19:23:42;54803.78;;;-143.77;69.96
13836;BME280;6988;52.614;13.500;2023-01-30T19:28:34;54809.94;;;-143.77;69.74
13836;BME280;6988;52.614;13.500;2023-01-30T19:33:26;54781.19;;;-143.77;69.42
13836;BME280;6988;52.614;13.500;2023-01-30T19:38:18;54801.72;;;-143.77;68.85
13836;BME280;6988;52.614;13.500;2023-01-30T19:43:12;54795.56;;;-143.77;68.43
13836;BME280;6988;52.614;13.500;2023-01-30T19:48:05;54777.09;;;-143.77;68.11
13836;BME280;6988;52.614;13.500;2023-01-30T19:52:58;54789.41;;;-143.77;68.03
13836;BME280;6988;52.614;13.500;2023-01-30T19:57:50;54791.47;;;-143.77;68.24
13836;BME280;6988;52.614;13.500;2023-01-30T20:02:43;54797.63;;;-143.77;67.99
13836;BME280;6988;52.614;13.500;2023-01-30T20:07:35;54779.16;;;-143.77;67.81
13836;BME280;6988;52.614;13.500;2023-01-30T20:12:27;54803.78;;;-143.77;67.97
13836;BME280;6988;52.614;13.500;2023-01-30T20:17:19;54766.84;;;-143.77;68.44
13836;BME280;6988;52.614;13.500;2023-01-30T20:22:12;54795.56;;;-143.77;67.58
13836;BME280;6988;52.614;13.500;2023-01-30T20:27:03;54799.66;;;-143.77;68.03
13836;BME280;6988;52.614;13.500;2023-01-30T20:31:55;54783.25;;;-143.77;69.14
13836;BME280;6988;52.614;13.500;2023-01-30T20:36:47;54807.88;;;-143.77;69.59
13836;BME280;6988;52.614;13.500;2023-01-30T20:41:40;54775.03;;;-143.77;69.67
13836;BME280;6988;52.614;13.500;2023-01-30T20:46:35;54793.50;;;-143.77;69.76
13836;BME280;6988;52.614;13.500;2023-01-30T20:51:32;54807.88;;;-143.77;69.28
13836;BME280;6988;52.614;13.500;2023-01-30T20:56:29;54762.72;;;-143.77;69.49
13836;BME280;6988;52.614;13.500;2023-01-30T21:01:23;54824.28;;;-143.77;68.94
13836;BME280;6988;52.614;13.500;2023-01-30T21:06:16;54809.94;;;-143.77;67.52
13836;BME280;6988;52.614;13.500;2023-01-30T21:11:11;54803.78;;;-143.77;66.86
13836;BME280;6988;52.614;13.500;2023-01-30T21:16:06;54793.50;;;-143.77;66.69
13836;BME280;6988;52.614;13.500;2023-01-30T21:21:01;54799.66;;;-143.77;65.92
13836;BME280;6988;52.614;13.500;2023-01-30T21:25:53;54816.09;;;-143.77;65.40
13836;BME280;6988;52.614;13.500;2023-01-30T21:30:45;54793.50;;;-143.77;65.24
13836;BME280;6988;52.614;13.500;2023-01-30T21:35:37;54816.09;;;-143.77;65.40
13836;BME280;6988;52.614;13.500;2023-01-30T21:40:30;54797.63;;;-143.77;65.70
13836;BME280;6988;52.614;13.500;2023-01-30T21:45:39;54775.03;;;-143.77;65.58
13836;BME280;6988;52.614;13.500;2023-01-30T21:50:31;54770.94;;;-143.77;66.65
13836;BME280;6988;52.614;13.500;2023-01-30T21:55:23;54816.09;;;-143.77;66.41
13836;BME280;6988;52.614;13.500;2023-01-30T22:00:17;54787.34;;;-143.77;66.81
13836;BME280;6988;52.614;13.500;2023-01-30T22:05:09;54781.19;;;-143.77;66.60
13836;BME280;6988;52.614;13.500;2023-01-30T22:10:01;54793.50;;;-143.77;66.62
13836;BME280;6988;52.614;13.500;2023-01-30T22:14:53;54826.34;;;-143.77;64.97
13836;BME280;6988;52.614;13.500;2023-01-30T22:19:46;54828.41;;;-143.77;65.38
13836;BME280;6988;52.614;13.500;2023-01-30T22:24:38;54781.19;;;-143.77;65.94
13836;BME280;6988;52.614;13.500;2023-01-30T22:29:29;54828.41;;;-143.77;65.64
13836;BME280;6988;52.614;13.500;2023-01-30T22:34:21;54781.19;;;-143.77;66.28
13836;BME280;6988;52.614;13.500;2023-01-30T22:39:14;54826.34;;;-143.77;67.02
13836;BME280;6988;52.614;13.500;2023-01-30T22:44:08;54824.28;;;-143.77;67.34
13836;BME280;6988;52.614;13.500;2023-01-30T23:05:08;54814.03;;;-143.77;69.99
13836;BME280;6988;52.614;13.500;2023-01-30T23:10:00;54853.03;;;-143.77;70.13
13836;BME280;6988;52.614;13.500;2023-01-30T23:14:52;54844.81;;;-143.77;69.81
13836;BME280;6988;52.614;13.500;2023-01-30T23:19:43;54865.34;;;-143.77;69.52
13836;BME280;6988;52.614;13.500;2023-01-30T23:24:36;54857.13;;;-143.77;69.80
13836;BME280;6988;52.614;13.500;2023-01-30T23:29:28;54838.66;;;-143.77;69.66
13836;BME280;6988;52.614;13.500;2023-01-30T23:34:20;54865.34;;;-143.77;69.68
13836;BME280;6988;52.614;13.500;2023-01-30T23:39:13;54871.50;;;-143.77;69.58
13836;BME280;6988;52.614;13.500;2023-01-30T23:44:06;54848.91;;;-143.77;69.75
13836;BME280;6988;52.614;13.500;2023-01-30T23:49:01;54855.06;;;-143.77;69.74
13836;BME280;6988;52.614;13.500;2023-01-30T23:53:54;54846.88;;;-143.77;69.74
13836;BME280;6988;52.614;13.500;2023-01-30T23:58:47;54840.72;;;-143.77;69.85
